Kezdőlap
METAR-TAF:

METAR-TAF

Repülőterek :

Gibraltár, Gibraltár

Gibraltári repülőtér

földrajzi szélesség: 36-09N, földrajzi hosszúság: 005-21W, magasság: 5 m

Jelenlegi meteorológiai megfigyelések

A jelentés 1 órával és 9 perccel ezelõtt készült, 00:50 UTC
Nyugat-délnyugati szél 12 kt
Hőmérséklet 13°C
Páratartalom 88%
Légköri nyomás 1025 hPa
Látótávolság 10 km, vagy több

METAR: LXGB 230050Z AUTO 25012KT 9999 // NCD 13/11 Q1025

Idő: 02:59 (01:59 UTC)

Előrejelzés

A jelentés 12 órával és 16 perccel ezelõtt készült, 13:43 UTC
Az előrejelzés 22-én 15 óra UTC és 22-én 22 óra UTC között érvényes
Délnyugati szél 12 kt
Látótávolság 10 km, vagy több
Kevés felhő 2000 lábon
22-én 15 óra UTC és 22-én 16 óra UTC között ideiglenes
Dél-délnyugati szél 14 kt

TAF: LXGB 221343Z 2215/2222 23012KT 9999 FEW020 TEMPO 2215/2216 20014KT 520002

Meteorológiai megfigyelések és előrejelzések több, mint 4000 repülőtéren (METAR és TAF jelentéseket).

A térképen piros és sárga pontok jelzik az elérhető meteorológiai állomásokat.

Mozgassa az egeret a pont fölött, hogy megjelenjen az állomás neve.

Azután kattintson az időjárási megfigyelések és előrejelzések megtekintéséhez.

A térkép megváltoztatása: kattintson a fekete keresztel jelölt zöld gombra ráközelítéshez, a vonallal jelölt zöld gombra távolításhoz, vagy a zöld nyilakra a szomszédos térképek eléréséhez.


METAR-TAF: